Pl Nom - Surname TEMPS - Time S-Cat /cat Club - Team Km/h /sx Diplôme Actions
1 MIRIDJANIAN MARVIN   (221) 00:37:01 MSE 1   16,2 1
2 STARCK CHRISTOPHE   (2) 00:38:53 MM0 1 beziers trail running 15,4 2
3 CAVALIER BENOIT   (1) 00:38:54 MM0 2 beziers trail running 15,4 3
4 VERES SÉBASTIEN   (42) 00:41:44 MM0 3   14,4 4
5 CHEVREUIL MATHIEU   (87) 00:41:57 MM2 1 Cap triathlon team 14,3 5
6 CLAIR STEPHANE   (113) 00:41:58 MM3 1   14,3 6
7 BOULANGER YANNICK   (66) 00:42:13 MM2 2   14,2 7
8 HANSEN OLIVIER   (133) 00:42:19 MM2 3 Triathlon Pezenas 14,2 8
9 PALAZY DAVID   (86) 00:42:38 MM2 4 Vccb - team crouzette 14,1 9
10 TROIS CYRILLE   (51) 00:43:01 MM3 2 VTR VIAS 13,9 10
11 VILLARD MAXIME   (101) 00:43:41 MSE 2 beziers trail running 13,7 11
12 DAGORN GUILLAUME   (22) 00:44:01 MM0 4 beziers trail running 13,6 12
13 CORNEILLE LUC   (7) 00:44:43 MM5 1 TAM MONTADY 13,4 13
14 PERES FLORENT   (103) 00:44:43 MSE 3 beziers trail running 13,4 14
15 FABRE LUCAS   (6) 00:44:45 MM0 5 beziers trail running 13,4 15
16 ALENGRIN DAMIEN   (13) 00:44:59 MSE 4 BOUJAN CITY 13,3 16
17 NIN MARCO   (102) 00:45:00 MSE 5 beziers trail running 13,3 17
18 MALLET NOE   (192) 00:45:17 MCA 1   13,2 18
19 RICHER GUILLAUME   (202) 00:46:10 MM2 5   13,0 19
20 ALBARRACIN FABIEN   (186) 00:46:20 MSE 6   12,9 20
21 WALCKER PAUL   (189) 00:47:12   5   12,7 21
22 DISCART EMMANUEL   (33) 00:47:25 MM3 3 ATHLE PEZENAS 34 12,7 22
23 DURRANDE JEAN BAPTISTE   (85) 00:47:36 MM4 1   12,6 23
24 FABRE ANAIS   (5) 00:48:01 FM0 1 beziers trail running 12,5 1
25 BOUIRAT MATTHIEU   (175) 00:48:20 MM1 1 beziers trail running 12,4 24
26 SEGUIN SEBASTIEN   (71) 00:48:31 MM3 4   12,4 25
27 BEIGNON ADRIEN   (24) 00:48:34 MM0 6   12,4 26
28 ROUANET ELODIE   (134) 00:48:42 FM1 1 Swimrun Triathlon Pézenas 12,3 2
29 BUSCAYE PHILIPPE   (220) 00:49:04 MM4 2   12,2 27
30 SERIN GAILLARD MATHILDE   (135) 00:49:16 FM0 2 beziers trail running 12,2 3
31 CAVALIER THOMAS   (180) 00:49:29 MSE 7 beziers trail running 12,1 28
32 BOYER CHRISTOPHE   (21) 00:49:34 MM4 3   12,1 29
33 CHABOUD MATHIAS   (169) 00:49:43 MM2 6 beziers trail running 12,1 30
34 HANSEN MATHIEU   (70) 00:49:43 MM1 2   12,1 31
35 DELGADO GILBERT   (67) 00:49:46 MM5 2   12,1 32
36 LAURIOL ERIC   (44) 00:49:47 MM1 3   12,0 33
37 GIBOIRE JULIEN   (217) 00:49:55 MM2 7   12,0 34
38 BOYER RÉMI   (20) 00:50:05 MSE 8   12,0 35
39 CAMPS LAURELINE   (203) 00:50:16 FM0 3   11,9 4
40 MICHEL JEROME   (208) 00:50:26 MM1 4   11,9 36
41 BAIXAS JULIEN   (47) 00:50:34 MM2 8 beziers trail running 11,9 37
42 BARIAS EMMANUEL   (65) 00:50:37 MM2 9 beziers trail running 11,9 38
43 COMBES ELISE   (165) 00:50:57 FM3 1 Run in Crès 11,8 5
44 GILLES JEREMY   (109) 00:51:02 MM3 5   11,8 39
45 MORALES FABRICE   (142) 00:51:06 MM6 1 LRUN (Lieuran) 11,7 40
46 CANTIER JULIEN   (148) 00:51:08 MM1 5   11,7 41
47 RICHARDIÈRE ARNAUD   (17) 00:51:08 MM1 6   11,7 42
48 ANGELOTTI ROCK   (198) 00:51:12 MM1 7   11,7 43
49 MOREAU YOHANN   (213) 00:51:15 MM1 8   11,7 44
50 ASTEZAN ROGER   (83) 00:51:24 MM4 4   11,7 45
51 HALLIER MARIE PIERRE   (32) 00:51:25 FM3 2   11,7 6
52 ABELLA MATHIDE   (158) 00:51:31 FM1 2   11,6 7
53 PIQUE PHILIPPE   (64) 00:51:38 MM6 2 TAM MONTADY 11,6 46
54 TORTI CLAUDE   (212) 00:51:38 MM4 5   11,6 47
55 BARTHA ALBAN   (230) 00:51:51 MSE 9   11,6 48
56 TURRIES MAEL   (110) 00:51:53 MSE 10   11,6 49
57 PICON PHILIPPE   (84) 00:51:53 MM2 10   11,6 50
58 BEVILACQUA LAURIE   (50) 00:52:00 FM0 4 BMRT 11,5 8
59 MENNANA SLIMANE   (91) 00:52:03 MM5 3 ATHLE PEZENAS 34 11,5 51
60 PAMBRUN BENOÎT   (82) 00:52:26 MM3 6   11,4 52
61 DURAND NICOLAS   (164) 00:52:37 MM3 7 Montpellier Running Club 11,4 53
62 COURJOU MOHAMED   (233) 00:52:45 MM0 7   11,4 54
63 SIMON DIMITRI   (209) 00:53:25 MSE 11   11,2 55
64 GRACIA JULIE   (145) 00:53:27 FSE 1   11,2 9
65 MARTIN FRÉDÉRIC   (154) 00:53:30 MM3 8   11,2 56
66 MAJONCHI JULIETTE   (8) 00:53:32 FCA 1   11,2 10
67 CASTELL STEPHANE   (219) 00:53:35 MM3 9   11,2 57
68 PUCHE ALAIN   (149) 00:53:44 MM4 6 CAMERON OlYMPIC CLUB 11,2 58
69 CURAN JÉRÉMY   (129) 00:53:47 MM0 8   11,2 59
70 SEGUY FRANCK   (75) 00:53:59 MM3 10   11,1 60
71 VESQUE MATHIEU   (190) 00:54:02   6   11,1 61
72 GOURAN NADEGE   (222) 00:54:08 FM3 3   11,1 11
73 JULLIEN DOMINIQUE   (146) 00:54:09 MM6 3 athle pezenas 34 11,1 62
74 BONIELLO FLORIAN   (173) 00:54:15 MSE 12   11,1 63
75 CALABRE MARIETTE   (121) 00:54:22 FSE 2   11,0 12
76 ROUSSEAU PAUL   (122) 00:54:25 MSE 13   11,0 64
77 BENETEAU PHILIPPE   (79) 00:54:27 MM5 4   11,0 65
78 HUND JEAN FRANCOIS   (37) 00:54:27 MM4 7   11,0 66
79 PONT JEAN MARC   (225) 00:54:34 MM4 8   11,0 67
80 BUFFARD ANTHONY   (90) 00:54:41 MM0 9   11,0 68
81 ALENGRIN PIERRE   (115) 00:54:49 MM4 9   10,9 69
82 DUDOIT STELLA   (188) 00:54:58   7   10,9 13
83 LEROY DANIEL   (89) 00:55:01 MM6 4   10,9 70
84 TORAL OLIVIER   (204) 00:55:06 MM3 11   10,9 71
85 AUGE SÉBASTIEN   (152) 00:55:26 MM2 11   10,8 72
86 BABILLOT THOMAS   (92) 00:55:31 MSE 14   10,8 73
87 GIMBAL ALEXANDRE   (59) 00:55:49 MES 1   10,7 74
88 MOITY PATRICK   (26) 00:55:53 MM8 1   10,7 75
89 MOUSSA RAMZY   (196) 00:55:54 MM2 12   10,7 76
90 COMBÈS LOANE   (11) 00:55:59 FCA 2   10,7 14
91 SALIES JEANNE   (56) 00:56:10 FES 1   10,7 15
92 BENETEAU MATHILDE   (80) 00:56:10 FSE 3   10,7 16
93 MARTINEZ SARITA   (107) 00:56:11 FM5 1 BMRT 10,7 17
94 DUMET CLARA   (140) 00:56:26 FSE 4   10,6 18
95 RAHMOUNI-NORYCH SARAH   (93) 00:56:34 FES 2 BEZIERS CHEMINOTS ATHLETISME MEDITERRANEE 10,6 19
96 DONNADILLES JEAN PHILIPPE   (68) 00:57:02 MM4 10   10,5 77
97 BERTRAND GRÉGORY   (15) 00:57:11 MSE 15   10,5 78
98 REJNERI CHRISTOPHE   (14) 00:57:11 MM4 11 CARGO 10,5 79
99 MALLET CLEMENT   (193) 00:57:15   8   10,5 80
100 GABRIELLI JEAN FRANCOIS   (194) 00:57:19 MM1 9   10,5 81
101 LEHU JORIS   (61) 00:57:23 MSE 16   10,5 82
102 ROQUES JEAN MICHEL   (143) 00:57:41 MM4 12   10,4 83
103 PRIVAT SANDRA   (206) 00:58:15 FM1 3   10,3 20
104 AMBAL ROBIN   (205) 00:58:16 MM2 13   10,3 84
105 MONFORT ELVIRE   (126) 00:58:17 FM3 4   10,3 21
106 COMBESCURE VALERIE   (191) 00:58:20   10   10,3 22
107 BESSON JULIEN   (38) 00:58:21 MM1 10   10,3 85
108 MAJONCHI PATRICK   (9) 00:58:24 MM3 12   10,3 86
109 QUIRINY JEAN YVES   (159) 00:58:24 MM1 11   10,3 87
110 SARRAZIN PUECH JUSTINE   (34) 00:58:27 FSE 5   10,3 23
111 FERRER FRÉDÉRIC   (161) 00:58:39 MM4 13   10,2 88
112 CORINO NATHALIE   (111) 00:58:42 FM4 1   10,2 24
113 LEGUE BRUNO   (88) 00:58:55 MM5 5   10,2 89
114 SALES ELODIE   (63) 00:59:00 FM0 5   10,2 25
115 VALENTIN JENNIFER   (3) 00:59:13 FM0 6   10,1 26
116 AZNAR SYLVAIN   (182) 00:59:29 MM1 12   10,1 90
117 LECHAT MARJORIE   (171) 00:59:38 FM1 4   10,1 27
118 COCHET JULIEN   (174) 00:59:42 MM0 10 beziers trail running 10,0 91
119 COSTE BERNARD   (72) 00:59:46 MM6 5 STADE MONTBLANAIS 10,0 92
120 RIBEIRO DA FONSECA ROMANE   (10) 00:59:50 FSE 6   10,0 28
121 ROGER MARION   (167) 01:00:02 FSE 7 pas de club 10,0 29
122 PERELLO LINO   (52) 01:00:07 MSE 17   10,0 93
123 MALZAC BENJAMIN   (166) 01:00:11 MM2 14   10,0 94
124 MALZAC-BEUCHOT VIRGINIE   (43) 01:00:11 FM2 1   10,0 30
125 RUIZ ELENA   (231) 01:00:14 FJU 1   10,0 31
126 SALINAS FREDERIC   (120) 01:00:34 MM4 14   9,9 95
127 SANTERRE BÉRENGÈRE   (36) 01:00:35 FM1 5   9,9 32
128 DIADHIOU JENNIFER   (195) 01:00:42 FM1 6   9,9 33
129 KRETZ MARILOU   (178) 01:00:51 FCA 3   9,9 34
130 BASCOU INES   (141) 01:01:16 FSE 8   9,8 35
131 SALINAS LYDIA   (104) 01:01:17 FM3 5 L RUN 9,8 36
132 MARTIN JULIETTE   (55) 01:01:18 FSE 9   9,8 37
133 BOUSCARAS CECILE   (183) 01:01:18 FM4 2   9,8 38
134 ROSINOL MIKAELLE   (41) 01:01:54 FM1 7   9,7 39
135 CALVET CAMILLE   (4) 01:01:58 FM0 7   9,7 40
136 GOUZY FRANCOISE   (223) 01:02:00 FM5 2   9,7 41
137 ANCELY NICOLAS   (162) 01:02:09 MM0 11   9,7 96
138 PUCHE VALERIE   (150) 01:02:10 FM4 3 CAMERON OLYMPIQUE CLUB 9,7 42
139 CRIADO SERGE   (211) 01:02:12 MM3 13   9,6 97
140 SONCARET PASCAL   (216) 01:02:20 MM4 15   9,6 98
141 GALINIER CHRISTIAN   (78) 01:02:59 MM4 16   9,5 99
142 JALABERT CHRISTOPHE   (155) 01:03:02 MM3 14   9,5 100
143 REDON LUCILE   (210) 01:03:04 FSE 10   9,5 43
144 SAUTEL ADELINE   (136) 01:03:05 FM0 8   9,5 44
145 FIORINA MANON   (49) 01:03:29 FSE 11   9,4 45
146 GAROFALO STÉPHANE   (106) 01:03:35 MM4 17 LRUN (Lieuran) 9,4 101
147 BOUSQUET VALERIE   (29) 01:04:01 FM5 3   9,4 46
148 SABANNE     (215) 01:04:03 MM0 12   9,4 102
149 FAVRE HERVE   (176) 01:04:06 MM7 1   9,4 103
150 CROCHON DYLAN   (181) 01:04:12 MSE 18 beziers trail running 9,3 104
151 LIGUORI LAURA   (16) 01:04:14 FSE 12   9,3 47
152 MOORE WOUTER   (177) 01:04:15 MM1 13   9,3 105
153 MAYEUX VINCENT   (153) 01:04:35 MSE 19   9,3 106
154 PAILLET PIERRE   (163) 01:04:47 MM6 6   9,3 107
155 MOLL NICOLAS   (232) 01:04:48 MSE 20   9,3 108
156 SURY BARBARA   (99) 01:04:48 FM4 4   9,3 48
157 RIBEYRE CLAUDIA   (96) 01:04:49 FM2 2   9,3 49
158 FICHET FLORIAN   (112) 01:05:06 MM0 13   9,2 109
159 LAIRIS MAUD   (156) 01:05:17 FSE 13   9,2 50
160 CABANES DAMIEN   (157) 01:05:18 MSE 21   9,2 110
161 ALFONSO ELOÏSE   (127) 01:05:24 FJU 2   9,2 51
162 LERDA NADINE   (35) 01:05:30 FM5 4   9,2 52
163 CRISTOL ANNE MARIE   (40) 01:05:35 FM0 9   9,1 53
164 MERCIER MEREDITH   (100) 01:05:52 FM0 10   9,1 54
165 BOHEME LOLA   (98) 01:05:53 FM0 11   9,1 55
166 GILLET STEPHANE   (226) 01:06:15 MM3 15   9,1 111
167 Anonyme Anonyme   (116) 01:06:35 FSE 14   9,0 56
168 Anonyme Anonyme   (124) 01:06:41 MM1 14   9,0 112
169 MATHIEU MANON   (123) 01:06:41 FSE 15   9,0 57
170 JACQUET GREGORY   (224) 01:06:46 MM3 16   9,0 113
171 JARJOUR ALINA   (39) 01:07:05 FM1 8   8,9 58
172 BICHE MARIE   (27) 01:07:10 FSE 16   8,9 59
173 INVERSO GIOVANNI   (28) 01:07:10 MSE 22   8,9 114
174 VAREIL MARIE-CHANTAL   (25) 01:07:12 FM7 1 MBRT 8,9 60
175 PITTANA ADRIANO   (160) 01:07:15 MM3 17   8,9 115
176 LE FALHER AUDE   (76) 01:07:58 FM2 3   8,8 61
177 LE FALHER GEORGES   (97) 01:07:59 MM3 18   8,8 116
178 GARCIA JULIEN   (147) 01:08:23 MM1 15   8,8 117
179 BAUDIN KEVIN   (132) 01:08:23 MM1 16   8,8 118
180 FARO SIMON   (77) 01:08:43 MM0 14   8,7 119
181 KRZYZANSKI THIERRY   (94) 01:08:44 MM5 6 DUR A CUIR 8,7 120
182 MARY CHRISTOPHE   (119) 01:09:13 MM4 18   8,7 121
183 LAVAL MARIN   (95) 01:09:24 MM5 7   8,6 122
184 MARTY LECHAT LAURINE   (172) 01:09:42 FCA 4 beziers trail running 8,6 62
185 GAUDEFRAY JONATHAN   (214) 01:09:53 MM0 15   8,6 123
186 BENDAHO KADER   (117) 01:09:54 MM4 19   8,6 124
187 ESCAFFIT JULIEN   (137) 01:09:57 MM1 17   8,6 125
188 BOUVEAU ALEXANDRA   (58) 01:10:28 FSE 17   8,5 63
189 MELINON CHLOE   (60) 01:10:30 FM1 9   8,5 64
190 GRANIE MARC   (199) 01:11:56 MM7 2   8,3 126
191 BRUNIQUEL JOHAN   (105) 01:11:58 MSE 23   8,3 127
192 RAGON CARLA   (228) 01:12:36 FSE 18   8,3 65
193 MATTERA FAUSTINE   (218) 01:12:36 FJU 3   8,3 66
194 MIRALLES MARIE   (227) 01:12:37 FSE 19   8,3 67
195 SAULE YANNICK   (229) 01:12:37 MSE 24   8,3 128
196 PRIVAT JEROME   (207) 01:12:38 MM2 15   8,3 129
197 GERVASONI SYLVIE   (62) 01:13:02 FM5 5 CAPS DE PAYRIN 8,2 68
198 LEYDIER LAURENT   (200) 01:13:33 MM5 8   8,2 130
199 RICHARDIERE CAROLINE   (18) 01:13:33 FM1 10   8,2 69
200 BICHE LYSIANE   (30) 01:13:51 FM7 2   8,1 70
201 PICON FAUSTINE   (118) 01:14:33 FJU 4   8,0 71
202 BOTELLA BÉATRICE   (81) 01:14:33 FM4 5 APAVE 8,0 72
203 CALMEL CHRISTELLE   (184) 01:14:40 FM1 11   8,0 73
204 ANDREO MARINE   (185) 01:14:40 FSE 20   8,0 74
205 GIRONELL MARILYNE   (19) 01:16:04 FM1 12   7,9 75
206 NGUYEN CÉCILE   (128) 01:16:06 FM0 12   7,9 76
207 ROUVIERE SYLVIE   (12) 01:16:37 FM4 6   7,8 77
208 WAND KATJA   (130) 01:17:18 FM5 6 Röntgenlöper 7,8 78
209 VIDAL LAURENT   (144) 01:19:22 MM2 16   7,6 131
210 CASTELVI DOMINIQUE   (31) 01:19:27 FM7 3   7,6 79
211 CADORET DANIEL   (45) 01:20:02 MM8 2 US MÉRY ATHLÉTIC CLUB 7,5 132
212 CADORET RODOLPHE   (170) 01:20:02 MM3 19   7,5 133
213 FREDERICO MARION   (179) 01:20:31 FSE 21   7,5 80